createdAt,value
2023-04-30T00:00:53.736Z,937.30
2023-04-30T00:01:53.760Z,937.29
2023-04-30T00:02:53.839Z,937.29
2023-04-30T00:03:53.821Z,937.25
2023-04-30T00:04:53.884Z,937.24
2023-04-30T00:05:53.832Z,937.32
2023-04-30T00:06:53.812Z,937.29
2023-04-30T00:07:53.841Z,937.30
2023-04-30T00:08:53.868Z,937.32
2023-04-30T00:09:54.023Z,937.36
2023-04-30T00:10:53.970Z,937.32
2023-04-30T00:11:53.884Z,937.35
2023-04-30T00:12:53.902Z,937.33
2023-04-30T00:13:53.912Z,937.36
2023-04-30T00:14:53.927Z,937.38
2023-04-30T00:15:54.062Z,937.42
2023-04-30T00:16:54.057Z,937.41
2023-04-30T00:17:54.020Z,937.41
2023-04-30T00:18:53.993Z,937.42
2023-04-30T00:19:54.138Z,937.38
2023-04-30T00:20:54.009Z,937.37
2023-04-30T00:21:54.031Z,937.40
2023-04-30T00:22:54.143Z,937.37
2023-04-30T00:23:54.058Z,937.35
2023-04-30T00:24:54.077Z,937.38
2023-04-30T00:25:54.110Z,937.38
2023-04-30T00:26:54.093Z,937.37
2023-04-30T00:27:54.113Z,937.40
2023-04-30T00:28:54.226Z,937.40
2023-04-30T00:29:54.339Z,937.39
2023-04-30T00:30:54.150Z,937.37
2023-04-30T00:31:54.209Z,937.39
2023-04-30T00:32:54.240Z,937.38
2023-04-30T00:33:54.188Z,937.39
2023-04-30T00:34:54.304Z,937.36
2023-04-30T00:35:54.225Z,937.36
2023-04-30T00:36:54.230Z,937.34
2023-04-30T00:37:54.254Z,937.37
2023-04-30T00:38:54.269Z,937.34
2023-04-30T00:39:54.599Z,937.36
2023-04-30T00:40:54.391Z,937.35
2023-04-30T00:41:54.345Z,937.33
2023-04-30T00:42:54.319Z,937.33
2023-04-30T00:43:54.327Z,937.32
2023-04-30T00:44:54.345Z,937.34
2023-04-30T00:45:54.401Z,937.30
2023-04-30T00:46:54.473Z,937.31
2023-04-30T00:47:54.439Z,937.32
2023-04-30T00:48:54.395Z,937.34
2023-04-30T00:49:54.614Z,937.31
2023-04-30T00:50:54.423Z,937.37
2023-04-30T00:51:54.465Z,937.36
2023-04-30T00:52:54.555Z,937.36
2023-04-30T00:53:54.477Z,937.35
2023-04-30T00:54:54.496Z,937.38
2023-04-30T00:55:54.492Z,937.38
2023-04-30T00:56:54.524Z,937.37
2023-04-30T00:57:54.535Z,937.38
2023-04-30T00:58:54.649Z,937.37
2023-04-30T00:59:54.811Z,937.34
2023-04-30T01:00:54.632Z,937.34
2023-04-30T01:01:54.592Z,937.34
2023-04-30T01:02:54.699Z,937.31
2023-04-30T01:03:54.610Z,937.29
2023-04-30T01:04:54.727Z,937.31
2023-04-30T01:05:54.648Z,937.28
2023-04-30T01:06:54.650Z,937.29
2023-04-30T01:07:54.656Z,937.28
2023-04-30T01:08:54.673Z,937.30
2023-04-30T01:09:54.882Z,937.24
2023-04-30T01:10:54.799Z,937.24
2023-04-30T01:11:54.739Z,937.23
2023-04-30T01:12:54.742Z,937.21
2023-04-30T01:13:54.759Z,937.21
2023-04-30T01:14:54.765Z,937.21
2023-04-30T01:15:54.881Z,937.21
2023-04-30T01:16:54.787Z,937.19
2023-04-30T01:17:54.870Z,937.20
2023-04-30T01:18:54.970Z,937.17
2023-04-30T01:19:55.112Z,937.16
2023-04-30T01:20:54.841Z,937.14
2023-04-30T01:21:54.953Z,937.16
2023-04-30T01:22:54.898Z,937.18
2023-04-30T01:23:54.879Z,937.15
2023-04-30T01:24:54.897Z,937.16
2023-04-30T01:25:54.903Z,937.17
2023-04-30T01:26:54.919Z,937.16
2023-04-30T01:27:55.031Z,937.10
2023-04-30T01:28:54.944Z,937.12
2023-04-30T01:29:55.281Z,937.13
2023-04-30T01:30:55.004Z,937.15
2023-04-30T01:31:54.993Z,937.11
2023-04-30T01:32:55.048Z,937.11
2023-04-30T01:33:55.127Z,937.10
2023-04-30T01:34:55.025Z,937.07
2023-04-30T01:35:55.048Z,937.06
2023-04-30T01:36:55.063Z,937.08
2023-04-30T01:37:55.080Z,937.04
2023-04-30T01:38:55.191Z,937.03
2023-04-30T01:39:55.395Z,937.07
2023-04-30T01:40:55.119Z,937.08
2023-04-30T01:41:55.127Z,937.07
2023-04-30T01:42:55.148Z,937.09
2023-04-30T01:43:55.154Z,937.06
2023-04-30T01:44:55.281Z,937.06
2023-04-30T01:45:55.298Z,937.06
2023-04-30T01:46:55.207Z,937.02
2023-04-30T01:47:55.253Z,937.05
2023-04-30T01:48:55.227Z,937.03
2023-04-30T01:49:55.539Z,937.09
2023-04-30T01:50:55.365Z,937.08
2023-04-30T01:51:55.266Z,937.07
2023-04-30T01:52:55.284Z,937.12
2023-04-30T01:53:55.303Z,937.13
2023-04-30T01:54:55.318Z,937.16
2023-04-30T01:55:55.329Z,937.15
2023-04-30T01:56:55.432Z,937.15
2023-04-30T01:57:55.356Z,937.15
2023-04-30T01:58:55.370Z,937.15
2023-04-30T01:59:55.659Z,937.08
2023-04-30T02:00:55.398Z,937.10
2023-04-30T02:01:55.461Z,937.08
2023-04-30T02:02:55.610Z,937.09
2023-04-30T02:03:55.568Z,937.08
2023-04-30T02:04:55.497Z,937.07
2023-04-30T02:05:55.481Z,937.04
2023-04-30T02:06:55.481Z,937.07
2023-04-30T02:07:55.496Z,937.06
2023-04-30T02:08:55.606Z,937.07
2023-04-30T02:09:55.775Z,937.05
2023-04-30T02:10:55.535Z,937.07
2023-04-30T02:11:55.549Z,937.09
2023-04-30T02:12:55.564Z,937.07
2023-04-30T02:13:55.575Z,937.06
2023-04-30T02:14:55.692Z,937.05
2023-04-30T02:15:55.672Z,937.05
2023-04-30T02:16:55.609Z,937.06
2023-04-30T02:17:55.705Z,937.04
2023-04-30T02:18:55.635Z,937.08
2023-04-30T02:19:55.846Z,937.08
2023-04-30T02:20:55.776Z,937.09
2023-04-30T02:21:55.685Z,937.11
2023-04-30T02:22:55.696Z,937.14
2023-04-30T02:23:55.708Z,937.13
2023-04-30T02:24:55.729Z,937.11
2023-04-30T02:25:55.830Z,937.10
2023-04-30T02:26:55.744Z,937.12
2023-04-30T02:27:55.772Z,937.10
2023-04-30T02:28:55.779Z,937.11
2023-04-30T02:29:56.012Z,937.13
2023-04-30T02:30:55.818Z,937.08
2023-04-30T02:31:56.005Z,937.08
2023-04-30T02:32:55.957Z,937.07
2023-04-30T02:33:55.861Z,937.08
2023-04-30T02:34:55.865Z,937.06
2023-04-30T02:35:55.898Z,937.10
2023-04-30T02:36:55.980Z,937.06
2023-04-30T02:37:55.906Z,937.04
2023-04-30T02:38:55.916Z,937.06
2023-04-30T02:39:56.173Z,937.03
2023-04-30T02:40:55.944Z,937.04
2023-04-30T02:41:56.050Z,937.07
2023-04-30T02:42:55.968Z,937.09
2023-04-30T02:43:55.980Z,937.09
2023-04-30T02:44:55.992Z,937.08
2023-04-30T02:45:56.028Z,937.10
2023-04-30T02:46:56.127Z,937.09
2023-04-30T02:47:56.063Z,937.07
2023-04-30T02:48:56.056Z,937.08
2023-04-30T02:49:56.376Z,937.08
2023-04-30T02:50:56.072Z,937.09
2023-04-30T02:51:56.187Z,937.06
2023-04-30T02:52:56.105Z,937.08
2023-04-30T02:53:56.132Z,937.05
2023-04-30T02:54:56.153Z,937.07
2023-04-30T02:55:56.178Z,937.08
2023-04-30T02:56:56.259Z,937.02
2023-04-30T02:57:56.178Z,937.03
2023-04-30T02:58:56.188Z,937.02
2023-04-30T02:59:56.622Z,936.99
2023-04-30T03:00:56.244Z,936.95
2023-04-30T03:01:56.228Z,936.96
2023-04-30T03:02:56.405Z,936.95
2023-04-30T03:03:56.259Z,936.96
2023-04-30T03:04:56.268Z,936.92
2023-04-30T03:05:56.355Z,936.90
2023-04-30T03:06:56.307Z,936.93
2023-04-30T03:07:56.300Z,936.90
2023-04-30T03:08:56.427Z,936.87
2023-04-30T03:09:56.491Z,936.89
2023-04-30T03:10:56.345Z,936.91
2023-04-30T03:11:56.377Z,936.88
2023-04-30T03:12:56.386Z,936.88
2023-04-30T03:13:56.389Z,936.85
2023-04-30T03:14:56.499Z,936.84
2023-04-30T03:15:56.439Z,936.83
2023-04-30T03:16:56.444Z,936.80
2023-04-30T03:17:56.475Z,936.81
2023-04-30T03:18:56.468Z,936.78
2023-04-30T03:19:56.813Z,936.80
2023-04-30T03:20:56.481Z,936.81
2023-04-30T03:21:56.522Z,936.73
2023-04-30T03:22:56.512Z,936.67
2023-04-30T03:23:56.533Z,936.67
2023-04-30T03:24:56.541Z,936.70
2023-04-30T03:25:56.678Z,936.64
2023-04-30T03:26:56.570Z,936.68
2023-04-30T03:27:56.582Z,936.68
2023-04-30T03:28:57.010Z,936.63
2023-04-30T03:29:56.877Z,936.64
2023-04-30T03:30:56.626Z,936.61
2023-04-30T03:31:56.799Z,936.60
2023-04-30T03:32:56.710Z,936.63
2023-04-30T03:33:56.717Z,936.61
2023-04-30T03:34:56.679Z,936.64
2023-04-30T03:35:56.690Z,936.63
2023-04-30T03:36:56.714Z,936.64
2023-04-30T03:37:56.856Z,936.66
2023-04-30T03:38:56.742Z,936.66
2023-04-30T03:39:57.198Z,936.64
2023-04-30T03:40:56.763Z,936.61
2023-04-30T03:41:56.785Z,936.61
2023-04-30T03:42:56.898Z,936.63
2023-04-30T03:43:56.826Z,936.60
2023-04-30T03:44:56.823Z,936.60
2023-04-30T03:45:56.869Z,936.65
2023-04-30T03:46:56.874Z,936.62
2023-04-30T03:47:57.133Z,936.69
2023-04-30T03:48:56.876Z,936.67
2023-04-30T03:49:57.106Z,936.69
2023-04-30T03:50:56.924Z,936.67
2023-04-30T03:51:56.923Z,936.68
2023-04-30T03:52:57.039Z,936.68
2023-04-30T03:53:56.970Z,936.70
2023-04-30T03:54:56.962Z,936.69
2023-04-30T03:55:56.971Z,936.69
2023-04-30T03:56:56.986Z,936.71
2023-04-30T03:57:56.998Z,936.68
2023-04-30T03:58:57.110Z,936.70
2023-04-30T03:59:57.083Z,936.67
2023-04-30T04:00:57.037Z,936.62
2023-04-30T04:01:57.080Z,936.56
2023-04-30T04:02:57.088Z,936.56
2023-04-30T04:03:57.213Z,936.52
2023-04-30T04:04:57.092Z,936.49
2023-04-30T04:05:57.121Z,936.50
2023-04-30T04:06:57.145Z,936.47
2023-04-30T04:07:57.142Z,936.47
2023-04-30T04:08:57.150Z,936.47
2023-04-30T04:09:57.295Z,936.45
2023-04-30T04:10:57.175Z,936.47
2023-04-30T04:11:57.196Z,936.43
2023-04-30T04:12:57.215Z,936.41
2023-04-30T04:13:57.218Z,936.44
2023-04-30T04:14:57.239Z,936.41
2023-04-30T04:15:57.398Z,936.43
2023-04-30T04:16:57.262Z,936.39
2023-04-30T04:17:57.319Z,936.44
2023-04-30T04:18:57.292Z,936.40
2023-04-30T04:19:57.306Z,936.39
2023-04-30T04:20:57.321Z,936.37
2023-04-30T04:21:57.439Z,936.36
2023-04-30T04:22:57.473Z,936.32
2023-04-30T04:23:57.360Z,936.30
2023-04-30T04:24:57.369Z,936.30
2023-04-30T04:25:57.410Z,936.31
2023-04-30T04:26:57.402Z,936.28
2023-04-30T04:27:57.518Z,936.26
2023-04-30T04:28:57.431Z,936.27
2023-04-30T04:29:57.430Z,936.23
2023-04-30T04:30:57.460Z,936.24
2023-04-30T04:31:57.514Z,936.21
2023-04-30T04:32:57.503Z,936.20
2023-04-30T04:33:57.589Z,936.20
2023-04-30T04:34:57.508Z,936.21
2023-04-30T04:35:57.519Z,936.19
2023-04-30T04:36:57.532Z,936.20
2023-04-30T04:37:57.540Z,936.20
2023-04-30T04:38:57.574Z,936.19
2023-04-30T04:39:57.669Z,936.17
2023-04-30T04:40:57.607Z,936.14
2023-04-30T04:41:57.615Z,936.14
2023-04-30T04:42:57.605Z,936.15
2023-04-30T04:43:57.629Z,936.15
2023-04-30T04:44:57.734Z,936.15
2023-04-30T04:45:57.756Z,936.13
2023-04-30T04:46:57.661Z,936.13
2023-04-30T04:47:57.753Z,936.11
2023-04-30T04:48:57.691Z,936.11
2023-04-30T04:49:57.704Z,936.10
2023-04-30T04:50:57.818Z,936.11
2023-04-30T04:51:57.736Z,936.11
2023-04-30T04:52:57.745Z,936.11
2023-04-30T04:53:57.763Z,936.08
2023-04-30T04:54:57.776Z,936.05
2023-04-30T04:55:57.783Z,936.08
2023-04-30T04:56:57.905Z,936.08
2023-04-30T04:57:57.833Z,936.06
2023-04-30T04:58:57.831Z,936.08
2023-04-30T04:59:57.838Z,936.05
2023-04-30T05:00:57.860Z,936.08
2023-04-30T05:01:57.941Z,936.07
2023-04-30T05:02:58.068Z,936.09
2023-04-30T05:03:58.029Z,936.09
2023-04-30T05:04:57.917Z,936.09
2023-04-30T05:05:57.928Z,936.13
2023-04-30T05:06:57.950Z,936.11
2023-04-30T05:07:57.960Z,936.12
2023-04-30T05:08:58.058Z,936.10
2023-04-30T05:09:57.984Z,936.10
2023-04-30T05:10:57.990Z,936.03
2023-04-30T05:11:58.010Z,936.08
2023-04-30T05:12:58.021Z,936.01
2023-04-30T05:13:58.172Z,936.03
2023-04-30T05:14:58.151Z,936.02
2023-04-30T05:15:58.135Z,935.98
2023-04-30T05:16:58.095Z,936.03
2023-04-30T05:17:58.124Z,936.01
2023-04-30T05:18:58.105Z,936.02
2023-04-30T05:19:58.212Z,936.00
2023-04-30T05:20:58.138Z,936.00
2023-04-30T05:21:58.134Z,936.04
2023-04-30T05:22:58.163Z,936.06
2023-04-30T05:23:58.168Z,936.05
2023-04-30T05:24:58.212Z,936.04
2023-04-30T05:25:58.293Z,936.04
2023-04-30T05:26:58.213Z,936.04
2023-04-30T05:27:58.231Z,935.99
2023-04-30T05:28:58.279Z,936.01
2023-04-30T05:29:58.266Z,935.98
2023-04-30T05:30:58.359Z,935.99
2023-04-30T05:31:58.365Z,935.99
2023-04-30T05:32:58.378Z,935.99
2023-04-30T05:33:58.300Z,936.00
2023-04-30T05:34:58.311Z,935.94
2023-04-30T05:35:58.425Z,935.98
2023-04-30T05:36:58.346Z,935.95
2023-04-30T05:37:58.370Z,935.92
2023-04-30T05:38:58.378Z,935.93
2023-04-30T05:39:58.392Z,935.92
2023-04-30T05:40:58.494Z,935.90
2023-04-30T05:41:58.443Z,935.85
2023-04-30T05:42:58.430Z,935.86
2023-04-30T05:43:58.448Z,935.88
2023-04-30T05:44:58.455Z,935.87
2023-04-30T05:45:58.646Z,935.88
2023-04-30T05:46:58.594Z,935.86
2023-04-30T05:47:58.546Z,935.85
2023-04-30T05:48:58.529Z,935.84
2023-04-30T05:49:58.515Z,935.84
2023-04-30T05:50:58.538Z,935.80
2023-04-30T05:51:58.552Z,935.77
2023-04-30T05:52:58.665Z,935.76
2023-04-30T05:53:58.591Z,935.74
2023-04-30T05:54:58.601Z,935.72
2023-04-30T05:55:58.608Z,935.72
2023-04-30T05:56:58.643Z,935.71
2023-04-30T05:57:58.726Z,935.74
2023-04-30T05:58:58.648Z,935.71
2023-04-30T05:59:58.664Z,935.68
2023-04-30T06:00:58.681Z,935.67
2023-04-30T06:01:58.747Z,935.68
2023-04-30T06:02:58.730Z,935.70
2023-04-30T06:03:58.823Z,935.74
2023-04-30T06:04:58.759Z,935.70
2023-04-30T06:05:58.771Z,935.72
2023-04-30T06:06:58.760Z,935.70
2023-04-30T06:07:58.769Z,935.71
2023-04-30T06:08:58.885Z,935.74
2023-04-30T06:09:58.804Z,935.70
2023-04-30T06:10:58.813Z,935.74
2023-04-30T06:11:58.829Z,935.69
2023-04-30T06:12:58.833Z,935.74
2023-04-30T06:13:58.867Z,935.71
2023-04-30T06:14:58.969Z,935.76
2023-04-30T06:15:58.873Z,935.72
2023-04-30T06:16:59.012Z,935.68
2023-04-30T06:17:58.975Z,935.70
2023-04-30T06:18:58.916Z,935.70
2023-04-30T06:19:58.958Z,935.71
2023-04-30T06:20:59.056Z,935.68
2023-04-30T06:21:58.963Z,935.71
2023-04-30T06:22:58.977Z,935.69
2023-04-30T06:23:58.986Z,935.70
2023-04-30T06:24:58.999Z,935.73
2023-04-30T06:25:59.058Z,935.71
2023-04-30T06:26:59.136Z,935.72
2023-04-30T06:27:59.038Z,935.71
2023-04-30T06:28:59.060Z,935.69
2023-04-30T06:29:59.066Z,935.68
2023-04-30T06:30:59.127Z,935.70
2023-04-30T06:31:59.102Z,935.66
2023-04-30T06:32:59.263Z,935.70
2023-04-30T06:33:59.151Z,935.66
2023-04-30T06:34:59.138Z,935.70
2023-04-30T06:35:59.151Z,935.68
2023-04-30T06:36:59.158Z,935.68
2023-04-30T06:37:59.174Z,935.68
2023-04-30T06:38:59.290Z,935.69
2023-04-30T06:39:59.200Z,935.63
2023-04-30T06:40:59.219Z,935.66
2023-04-30T06:41:59.228Z,935.65
2023-04-30T06:42:59.256Z,935.64
2023-04-30T06:43:59.255Z,935.63
2023-04-30T06:44:59.374Z,935.60
2023-04-30T06:45:59.359Z,935.59
2023-04-30T06:46:59.303Z,935.60
2023-04-30T06:47:59.324Z,935.60
2023-04-30T06:48:59.336Z,935.57
2023-04-30T06:49:59.456Z,935.57
2023-04-30T06:50:59.347Z,935.58
2023-04-30T06:51:59.373Z,935.54
2023-04-30T06:52:59.386Z,935.53
2023-04-30T06:53:59.390Z,935.56
2023-04-30T06:54:59.409Z,935.50
2023-04-30T06:55:59.526Z,935.56
2023-04-30T06:56:59.436Z,935.51
2023-04-30T06:57:59.444Z,935.50
2023-04-30T06:58:59.467Z,935.49
2023-04-30T06:59:59.480Z,935.48
2023-04-30T07:00:59.489Z,935.45
2023-04-30T07:01:59.657Z,935.47
2023-04-30T07:02:59.596Z,935.46
2023-04-30T07:03:59.559Z,935.45
2023-04-30T07:04:59.540Z,935.46
2023-04-30T07:05:59.615Z,935.44
2023-04-30T07:06:59.578Z,935.44
2023-04-30T07:07:59.684Z,935.47
2023-04-30T07:08:59.593Z,935.45
2023-04-30T07:09:59.614Z,935.49
2023-04-30T07:10:59.618Z,935.45
2023-04-30T07:11:59.641Z,935.45
2023-04-30T07:12:59.676Z,935.47
2023-04-30T07:13:59.764Z,935.47
2023-04-30T07:14:59.684Z,935.46
2023-04-30T07:15:59.772Z,935.44
2023-04-30T07:16:59.706Z,935.42
2023-04-30T07:17:59.752Z,935.42
2023-04-30T07:18:59.834Z,935.39
2023-04-30T07:19:59.754Z,935.41
2023-04-30T07:20:59.758Z,935.39
2023-04-30T07:21:59.792Z,935.40
2023-04-30T07:22:59.799Z,935.39
2023-04-30T07:23:59.809Z,935.39
2023-04-30T07:24:59.906Z,935.41
2023-04-30T07:25:59.857Z,935.40
2023-04-30T07:26:59.842Z,935.42
2023-04-30T07:27:59.849Z,935.42
2023-04-30T07:28:59.861Z,935.44
2023-04-30T07:29:59.975Z,935.42
2023-04-30T07:30:59.916Z,935.44
2023-04-30T07:31:59.971Z,935.43
2023-04-30T07:32:59.954Z,935.41
2023-04-30T07:33:59.925Z,935.43
2023-04-30T07:34:59.950Z,935.42
2023-04-30T07:36:00.134Z,935.46
2023-04-30T07:36:59.976Z,935.43
2023-04-30T07:38:00.010Z,935.45
2023-04-30T07:39:00.004Z,935.44
2023-04-30T07:40:00.019Z,935.43
2023-04-30T07:41:00.025Z,935.45
2023-04-30T07:42:00.154Z,935.44
2023-04-30T07:43:00.065Z,935.47
2023-04-30T07:44:00.070Z,935.45
2023-04-30T07:45:00.117Z,935.50
2023-04-30T07:46:00.203Z,935.49
2023-04-30T07:47:00.215Z,935.50
2023-04-30T07:48:00.220Z,935.50
2023-04-30T07:49:00.143Z,935.49
2023-04-30T07:50:00.224Z,935.51
2023-04-30T07:51:00.177Z,935.51
2023-04-30T07:52:00.282Z,935.49
2023-04-30T07:53:00.188Z,935.48
2023-04-30T07:54:00.255Z,935.49
2023-04-30T07:55:00.280Z,935.50
2023-04-30T07:56:00.239Z,935.48
2023-04-30T07:57:00.517Z,935.47
2023-04-30T07:58:00.254Z,935.44
2023-04-30T07:59:00.276Z,935.43
2023-04-30T08:00:00.289Z,935.41
2023-04-30T08:01:00.315Z,935.40
2023-04-30T08:02:00.355Z,935.44
2023-04-30T08:03:00.764Z,935.43
2023-04-30T08:04:00.483Z,935.43
2023-04-30T08:05:00.354Z,935.48
2023-04-30T08:06:00.376Z,935.45
2023-04-30T08:07:00.390Z,935.45
2023-04-30T08:08:00.401Z,935.43
2023-04-30T08:09:00.521Z,935.43
2023-04-30T08:10:00.450Z,935.46
2023-04-30T08:11:00.439Z,935.51
2023-04-30T08:12:00.467Z,935.48
2023-04-30T08:13:00.466Z,935.50
2023-04-30T08:14:00.475Z,935.52
2023-04-30T08:15:00.586Z,935.56
2023-04-30T08:16:00.525Z,935.60
2023-04-30T08:17:00.618Z,935.61
2023-04-30T08:18:00.582Z,935.67
2023-04-30T08:19:00.549Z,935.66
2023-04-30T08:20:00.555Z,935.68
2023-04-30T08:21:00.680Z,935.68
2023-04-30T08:22:00.592Z,935.71
2023-04-30T08:23:00.603Z,935.69
2023-04-30T08:24:00.639Z,935.67
2023-04-30T08:25:00.622Z,935.70
2023-04-30T08:26:00.882Z,935.70
2023-04-30T08:27:00.657Z,935.67
2023-04-30T08:28:00.661Z,935.68
2023-04-30T08:29:00.689Z,935.72
2023-04-30T08:30:00.703Z,935.67
2023-04-30T08:31:00.705Z,935.69
2023-04-30T08:32:00.853Z,935.71
2023-04-30T08:33:00.793Z,935.66
2023-04-30T08:34:00.746Z,935.73
2023-04-30T08:35:00.762Z,935.70
2023-04-30T08:36:00.783Z,935.70
2023-04-30T08:37:00.883Z,935.75
2023-04-30T08:38:00.802Z,935.74
2023-04-30T08:39:00.810Z,935.76
2023-04-30T08:40:00.840Z,935.76
2023-04-30T08:41:00.852Z,935.76
2023-04-30T08:42:00.968Z,935.79
2023-04-30T08:43:00.871Z,935.83
2023-04-30T08:44:00.891Z,935.82
2023-04-30T08:45:00.895Z,935.83
2023-04-30T08:46:00.918Z,935.82
2023-04-30T08:47:00.940Z,935.85
2023-04-30T08:48:01.144Z,935.84
2023-04-30T08:49:00.946Z,935.90
2023-04-30T08:50:00.962Z,935.93
2023-04-30T08:51:00.986Z,935.93
2023-04-30T08:52:00.994Z,935.94
2023-04-30T08:53:01.006Z,935.95
2023-04-30T08:54:01.114Z,935.96
2023-04-30T08:55:01.123Z,935.95
2023-04-30T08:56:01.040Z,935.96
2023-04-30T08:57:01.070Z,935.97
2023-04-30T08:58:01.153Z,935.99
2023-04-30T08:59:01.179Z,936.00
2023-04-30T09:00:01.100Z,936.03
2023-04-30T09:01:01.125Z,936.07
2023-04-30T09:02:01.200Z,936.02
2023-04-30T09:03:01.238Z,936.04
2023-04-30T09:04:01.326Z,936.08
2023-04-30T09:05:01.159Z,936.07
2023-04-30T09:06:01.189Z,936.05
2023-04-30T09:07:02.315Z,936.08
2023-04-30T09:08:03.984Z,936.09
2023-04-30T09:09:01.220Z,936.16
2023-04-30T09:10:01.342Z,936.17
2023-04-30T09:11:01.240Z,936.20
2023-04-30T09:12:01.261Z,936.22
2023-04-30T09:13:01.270Z,936.23
2023-04-30T09:14:01.339Z,936.26
2023-04-30T09:15:01.319Z,936.26
2023-04-30T09:16:01.465Z,936.26
2023-04-30T09:17:01.335Z,936.28
2023-04-30T09:18:01.349Z,936.27
2023-04-30T09:19:01.355Z,936.26
2023-04-30T09:20:01.365Z,936.29
2023-04-30T09:21:01.389Z,936.33
2023-04-30T09:22:01.495Z,936.35
2023-04-30T09:23:01.413Z,936.36
2023-04-30T09:24:01.424Z,936.39
2023-04-30T09:25:01.434Z,936.40
2023-04-30T09:26:01.468Z,936.39
2023-04-30T09:27:01.555Z,936.37
2023-04-30T09:28:01.475Z,936.41
2023-04-30T09:29:01.491Z,936.38
2023-04-30T09:30:01.591Z,936.41
2023-04-30T09:31:01.523Z,936.45
2023-04-30T09:32:01.658Z,936.47
2023-04-30T09:33:01.709Z,936.47
2023-04-30T09:34:01.553Z,936.45
2023-04-30T09:35:01.576Z,936.50
2023-04-30T09:36:01.600Z,936.50
2023-04-30T09:37:01.596Z,936.54
2023-04-30T09:38:01.617Z,936.57
2023-04-30T09:39:01.723Z,936.59
2023-04-30T09:40:01.631Z,936.57
2023-04-30T09:41:01.715Z,936.59
2023-04-30T09:42:01.666Z,936.58
2023-04-30T09:43:01.678Z,936.59
2023-04-30T09:44:01.692Z,936.55
2023-04-30T09:45:01.800Z,936.59
2023-04-30T09:46:01.742Z,936.58
2023-04-30T09:47:01.748Z,936.60
2023-04-30T09:48:13.146Z,936.61
2023-04-30T09:49:01.770Z,936.62
2023-04-30T09:50:01.872Z,936.64
2023-04-30T09:51:01.778Z,936.63
2023-04-30T09:52:01.799Z,936.63
2023-04-30T09:53:01.825Z,936.62
2023-04-30T09:54:01.836Z,936.62
2023-04-30T09:55:01.939Z,936.63
2023-04-30T09:56:01.849Z,936.62
2023-04-30T09:57:02.081Z,936.63
2023-04-30T09:58:01.878Z,936.68
2023-04-30T09:59:01.894Z,936.65
2023-04-30T10:00:01.926Z,936.67
2023-04-30T10:01:02.117Z,936.66
2023-04-30T10:02:01.947Z,936.68
2023-04-30T10:03:02.005Z,936.71
2023-04-30T10:04:01.992Z,936.72
2023-04-30T10:05:01.971Z,936.72
2023-04-30T10:06:02.133Z,936.74
2023-04-30T10:07:02.009Z,936.73
2023-04-30T10:08:02.007Z,936.76
2023-04-30T10:09:02.028Z,936.77
2023-04-30T10:10:02.034Z,936.73
2023-04-30T10:11:02.078Z,936.74
2023-04-30T10:12:02.184Z,936.75
2023-04-30T10:13:02.084Z,936.77
2023-04-30T10:14:02.095Z,936.73
2023-04-30T10:15:02.136Z,936.73
2023-04-30T10:16:02.129Z,936.74
2023-04-30T10:17:02.469Z,936.74
2023-04-30T10:18:02.290Z,936.78
2023-04-30T10:19:02.165Z,936.78
2023-04-30T10:20:02.177Z,936.75
2023-04-30T10:21:02.189Z,936.70
2023-04-30T10:22:02.199Z,936.75
2023-04-30T10:23:02.418Z,936.75
2023-04-30T10:24:02.223Z,936.79
2023-04-30T10:25:02.236Z,936.79
2023-04-30T10:26:02.257Z,936.78
2023-04-30T10:27:02.260Z,936.77
2023-04-30T10:28:04.707Z,936.78
2023-04-30T10:29:02.417Z,936.78
2023-04-30T10:30:02.311Z,936.80
2023-04-30T10:31:02.319Z,936.79
2023-04-30T10:32:02.393Z,936.82
2023-04-30T10:33:02.406Z,936.81
2023-04-30T10:34:02.385Z,936.80
2023-04-30T10:35:02.478Z,936.80
2023-04-30T10:36:02.392Z,936.80
2023-04-30T10:37:02.408Z,936.73
2023-04-30T10:38:02.419Z,936.72
2023-04-30T10:39:02.440Z,936.72
2023-04-30T10:40:02.437Z,936.72
2023-04-30T10:41:02.551Z,936.71
2023-04-30T10:42:02.461Z,936.72
2023-04-30T10:43:02.487Z,936.73
2023-04-30T10:44:02.496Z,936.71
2023-04-30T10:45:02.510Z,936.74
2023-04-30T10:46:02.537Z,936.79
2023-04-30T10:47:02.684Z,936.78
2023-04-30T10:48:02.594Z,936.77
2023-04-30T10:49:02.567Z,936.78
2023-04-30T10:50:02.604Z,936.81
2023-04-30T10:51:02.595Z,936.78
2023-04-30T10:52:02.700Z,936.85
2023-04-30T10:53:02.614Z,936.85
2023-04-30T10:54:02.638Z,936.88
2023-04-30T10:55:02.642Z,936.87
2023-04-30T10:56:02.662Z,936.88
2023-04-30T10:57:02.668Z,936.89
2023-04-30T10:58:02.782Z,936.89
2023-04-30T10:59:02.721Z,936.91
2023-04-30T11:00:02.722Z,936.93
2023-04-30T11:01:02.768Z,936.92
2023-04-30T11:02:02.866Z,936.90
2023-04-30T11:03:02.981Z,936.96
2023-04-30T11:04:02.762Z,936.93
2023-04-30T11:05:02.821Z,936.92
2023-04-30T11:06:02.861Z,936.94
2023-04-30T11:07:02.803Z,936.95
2023-04-30T11:08:02.824Z,936.90
2023-04-30T11:09:02.943Z,936.93
2023-04-30T11:10:02.886Z,936.92
2023-04-30T11:11:02.859Z,936.93
2023-04-30T11:12:02.895Z,936.93
2023-04-30T11:13:02.892Z,936.93
2023-04-30T11:14:03.000Z,936.94
2023-04-30T11:15:02.921Z,936.98
2023-04-30T11:16:02.967Z,937.00
2023-04-30T11:17:02.948Z,937.02
2023-04-30T11:18:02.962Z,936.99
2023-04-30T11:19:02.973Z,937.00
2023-04-30T11:20:03.126Z,937.08
2023-04-30T11:21:03.003Z,937.05
2023-04-30T11:22:03.033Z,937.07
2023-04-30T11:23:03.054Z,937.05
2023-04-30T11:24:03.037Z,937.05
2023-04-30T11:25:03.050Z,937.02
2023-04-30T11:26:03.168Z,937.06
2023-04-30T11:27:03.080Z,937.06
2023-04-30T11:28:03.096Z,937.02
2023-04-30T11:29:03.156Z,937.06
2023-04-30T11:30:03.119Z,937.08
2023-04-30T11:31:03.269Z,937.09
2023-04-30T11:32:03.241Z,937.08
2023-04-30T11:33:03.264Z,937.09
2023-04-30T11:34:03.176Z,937.11
2023-04-30T11:35:03.196Z,937.13
2023-04-30T11:36:03.199Z,937.13
2023-04-30T11:37:03.336Z,937.16
2023-04-30T11:38:03.262Z,937.14
2023-04-30T11:39:03.245Z,937.16
2023-04-30T11:40:03.271Z,937.18
2023-04-30T11:41:03.281Z,937.17
2023-04-30T11:42:03.279Z,937.14
2023-04-30T11:43:03.403Z,937.21
2023-04-30T11:44:03.315Z,937.17
2023-04-30T11:45:03.320Z,937.16
2023-04-30T11:46:03.341Z,937.19
2023-04-30T11:47:03.493Z,937.19
2023-04-30T11:48:03.516Z,937.22
2023-04-30T11:49:03.390Z,937.27
2023-04-30T11:50:03.394Z,937.29
2023-04-30T11:51:03.410Z,937.26
2023-04-30T11:52:03.431Z,937.33
2023-04-30T11:53:03.447Z,937.29
2023-04-30T11:54:03.639Z,937.29
2023-04-30T11:55:03.462Z,937.34
2023-04-30T11:56:03.472Z,937.36
2023-04-30T11:57:03.482Z,937.38
2023-04-30T11:58:03.500Z,937.38
2023-04-30T11:59:03.618Z,937.39
2023-04-30T12:00:03.521Z,937.40
2023-04-30T12:01:03.547Z,937.43
2023-04-30T12:02:03.578Z,937.40
2023-04-30T12:03:03.951Z,937.39
2023-04-30T12:04:03.686Z,937.47
2023-04-30T12:05:03.697Z,937.42
2023-04-30T12:06:03.619Z,937.47
2023-04-30T12:07:03.624Z,937.45
2023-04-30T12:08:03.642Z,937.46
2023-04-30T12:09:03.652Z,937.46
2023-04-30T12:10:03.698Z,937.51
2023-04-30T12:11:03.774Z,937.51
2023-04-30T12:12:03.696Z,937.51
2023-04-30T12:13:03.701Z,937.51
2023-04-30T12:14:03.717Z,937.55
2023-04-30T12:15:03.738Z,937.56
2023-04-30T12:16:03.897Z,937.54
2023-04-30T12:17:03.961Z,937.60
2023-04-30T12:18:03.853Z,937.59
2023-04-30T12:19:03.813Z,937.59
2023-04-30T12:20:03.804Z,937.60
2023-04-30T12:21:03.820Z,937.59
2023-04-30T12:22:03.928Z,937.62
2023-04-30T12:23:03.868Z,937.59
2023-04-30T12:24:03.931Z,937.60
2023-04-30T12:25:03.864Z,937.58
2023-04-30T12:26:03.891Z,937.65
2023-04-30T12:27:04.006Z,937.62
2023-04-30T12:28:03.903Z,937.65
2023-04-30T12:29:03.929Z,937.63